createdAt,value
2019-01-16T00:01:35.998Z,-1.84
2019-01-16T00:04:21.328Z,-1.76
2019-01-16T00:07:23.457Z,-1.68
2019-01-16T00:10:04.031Z,-1.63
2019-01-16T00:12:53.102Z,-1.61
2019-01-16T00:15:42.173Z,-1.56
2019-01-16T00:18:21.167Z,-1.51
2019-01-16T00:21:25.413Z,-1.48
2019-01-16T00:24:13.302Z,-1.48
2019-01-16T00:27:11.825Z,-1.52
2019-01-16T00:29:51.661Z,-1.57
2019-01-16T00:32:39.725Z,-1.61
2019-01-16T00:35:37.693Z,-1.65
2019-01-16T00:38:19.077Z,-1.74
2019-01-16T00:41:06.207Z,-1.80
2019-01-16T00:44:10.440Z,-1.82
2019-01-16T00:46:53.010Z,-1.85
2019-01-16T00:49:29.688Z,-1.90
2019-01-16T00:52:19.662Z,-1.90
2019-01-16T00:55:11.561Z,-1.91
2019-01-16T00:57:58.812Z,-1.96
2019-01-16T01:00:50.977Z,-2.05
2019-01-16T01:03:49.182Z,-2.08
2019-01-16T01:06:44.326Z,-2.04
2019-01-16T01:09:42.100Z,-2.01
2019-01-16T01:12:44.355Z,-1.99
2019-01-16T01:15:42.629Z,-1.98
2019-01-16T01:18:32.347Z,-1.98
2019-01-16T01:21:27.533Z,-2.00
2019-01-16T01:24:15.420Z,-2.03
2019-01-16T01:27:00.659Z,-2.12
2019-01-16T01:29:40.434Z,-2.21
2019-01-16T01:32:26.800Z,-2.17
2019-01-16T01:35:14.804Z,-2.08
2019-01-16T01:38:02.478Z,-2.00
2019-01-16T01:40:49.078Z,-1.93
2019-01-16T01:43:35.368Z,-1.95
2019-01-16T01:46:23.106Z,-1.93
2019-01-16T01:49:15.023Z,-1.99
2019-01-16T01:51:57.466Z,-2.01
2019-01-16T01:54:45.436Z,-2.14
2019-01-16T01:57:33.709Z,-2.16
2019-01-16T02:00:27.593Z,-2.15
2019-01-16T02:03:16.751Z,-2.15
2019-01-16T02:06:01.493Z,-2.20
2019-01-16T02:08:53.871Z,-2.40
2019-01-16T02:11:59.028Z,-2.43
2019-01-16T02:14:47.069Z,-2.36
2019-01-16T02:17:45.360Z,-2.41
2019-01-16T02:20:53.061Z,-2.46
2019-01-16T02:23:45.462Z,-2.48
2019-01-16T02:26:35.150Z,-2.52
2019-01-16T02:29:22.845Z,-2.54
2019-01-16T02:32:11.940Z,-2.57
2019-01-16T02:34:59.736Z,-2.60
2019-01-16T02:37:55.706Z,-2.63
2019-01-16T02:40:43.433Z,-2.67
2019-01-16T02:43:31.781Z,-2.71
2019-01-16T02:46:16.849Z,-2.82
2019-01-16T02:49:00.951Z,-2.90
2019-01-16T02:51:55.893Z,-3.01
2019-01-16T02:54:43.986Z,-3.05
2019-01-16T02:57:26.246Z,-3.12
2019-01-16T03:00:09.161Z,-3.20
2019-01-16T03:02:57.732Z,-3.27
2019-01-16T03:05:42.581Z,-3.28
2019-01-16T03:08:22.652Z,-3.31
2019-01-16T03:11:10.818Z,-3.38
2019-01-16T03:13:59.452Z,-3.44
2019-01-16T03:16:57.832Z,-3.68
2019-01-16T03:19:43.900Z,-3.70
2019-01-16T03:22:37.375Z,-3.74
2019-01-16T03:25:17.750Z,-3.82
2019-01-16T03:28:18.979Z,-3.86
2019-01-16T03:31:05.781Z,-3.85
2019-01-16T03:34:08.029Z,-3.97
2019-01-16T03:36:56.025Z,-4.06
2019-01-16T03:39:45.136Z,-4.11
2019-01-16T03:42:34.189Z,-4.19
2019-01-16T03:45:20.804Z,-4.30
2019-01-16T03:48:12.668Z,-4.44
2019-01-16T03:51:04.812Z,-4.47
2019-01-16T03:53:56.727Z,-4.48
2019-01-16T03:56:45.828Z,-4.53
2019-01-16T03:59:53.549Z,-4.56
2019-01-16T04:02:45.792Z,-4.61
2019-01-16T04:05:23.837Z,-4.70
2019-01-16T04:08:22.155Z,-4.74
2019-01-16T04:11:13.421Z,-4.78
2019-01-16T04:14:01.992Z,-4.82
2019-01-16T04:16:48.890Z,-4.88
2019-01-16T04:19:55.645Z,-4.92
2019-01-16T04:22:44.704Z,-4.98
2019-01-16T04:25:32.765Z,-5.03
2019-01-16T04:28:20.607Z,-5.00
2019-01-16T04:31:09.712Z,-5.03
2019-01-16T04:33:51.969Z,-5.66
2019-01-16T04:36:45.881Z,-5.13
2019-01-16T04:39:30.530Z,-5.14
2019-01-16T04:42:17.757Z,-5.11
2019-01-16T04:45:05.553Z,-5.09
2019-01-16T04:47:52.607Z,-5.01
2019-01-16T04:50:40.307Z,-5.00
2019-01-16T04:53:27.670Z,-4.99
2019-01-16T04:56:28.883Z,-4.98
2019-01-16T04:59:07.838Z,-5.10
2019-01-16T05:02:05.876Z,-5.07
2019-01-16T05:04:54.418Z,-5.08
2019-01-16T05:07:55.621Z,-5.10
2019-01-16T05:10:53.644Z,-5.18
2019-01-16T05:13:41.665Z,-5.23
2019-01-16T05:16:29.691Z,-5.26
2019-01-16T05:19:18.588Z,-5.29
2019-01-16T05:21:57.020Z,-5.31
2019-01-16T05:25:01.527Z,-5.33
2019-01-16T05:27:56.344Z,-5.29
2019-01-16T05:30:48.486Z,-5.31
2019-01-16T05:33:40.362Z,-5.35
2019-01-16T05:36:31.710Z,-5.31
2019-01-16T05:39:19.820Z,-5.24
2019-01-16T05:42:06.382Z,-5.17
2019-01-16T05:44:54.169Z,-5.17
2019-01-16T05:47:35.182Z,-5.11
2019-01-16T05:50:24.559Z,-5.10
2019-01-16T05:53:04.377Z,-5.08
2019-01-16T05:55:52.341Z,-5.09
2019-01-16T05:58:46.394Z,-5.10
2019-01-16T06:01:41.649Z,-5.11
2019-01-16T06:04:39.428Z,-5.22
2019-01-16T06:07:36.243Z,-5.23
2019-01-16T06:10:27.735Z,-5.24
2019-01-16T06:13:22.617Z,-5.19
2019-01-16T06:16:17.757Z,-5.24
2019-01-16T06:19:07.153Z,-5.23
2019-01-16T06:22:05.697Z,-5.21
2019-01-16T06:25:05.069Z,-5.16
2019-01-16T06:27:53.278Z,-5.14
2019-01-16T06:30:42.429Z,-5.11
2019-01-16T06:33:21.673Z,-5.14
2019-01-16T06:36:22.423Z,-5.11
2019-01-16T06:39:11.491Z,-5.08
2019-01-16T06:42:03.601Z,-5.06
2019-01-16T06:44:51.521Z,-5.07
2019-01-16T06:47:48.212Z,-5.07
2019-01-16T06:50:40.115Z,-5.05
2019-01-16T06:53:29.495Z,-5.03
2019-01-16T06:56:17.173Z,-5.04
2019-01-16T06:58:55.314Z,-5.08
2019-01-16T07:01:53.669Z,-5.07
2019-01-16T07:04:48.858Z,-5.02
2019-01-16T07:07:36.603Z,-5.01
2019-01-16T07:10:27.053Z,-4.96
2019-01-16T07:13:18.339Z,-4.95
2019-01-16T07:16:01.077Z,-4.88
2019-01-16T07:18:56.197Z,-4.84
2019-01-16T07:21:44.232Z,-4.79
2019-01-16T07:24:42.216Z,-4.77
2019-01-16T07:27:34.317Z,-4.74
2019-01-16T07:30:16.396Z,-4.72
2019-01-16T07:33:11.642Z,-4.72
2019-01-16T07:36:10.524Z,-4.74
2019-01-16T07:39:05.597Z,-4.78
2019-01-16T07:42:03.754Z,-4.80
2019-01-16T07:44:47.222Z,-4.75
2019-01-16T07:47:39.326Z,-4.70
2019-01-16T07:50:18.909Z,-4.66
2019-01-16T07:53:06.889Z,-4.61
2019-01-16T07:55:48.224Z,-4.57
2019-01-16T07:58:36.278Z,-4.52
2019-01-16T08:01:23.597Z,-4.46
2019-01-16T08:04:15.442Z,-4.44
2019-01-16T08:07:10.577Z,-4.43
2019-01-16T08:10:00.238Z,-4.42
2019-01-16T08:12:55.494Z,-4.39
2019-01-16T08:15:50.561Z,-4.37
2019-01-16T08:18:38.798Z,-4.33
2019-01-16T08:21:42.991Z,-4.33
2019-01-16T08:24:30.918Z,-4.29
2019-01-16T08:27:18.734Z,-4.25
2019-01-16T08:30:06.654Z,-4.22
2019-01-16T08:32:58.852Z,-4.17
2019-01-16T08:35:38.751Z,-4.13
2019-01-16T08:38:27.832Z,-4.06
2019-01-16T08:41:29.089Z,-4.02
2019-01-16T08:44:21.808Z,-4.01
2019-01-16T08:47:09.742Z,-4.01
2019-01-16T08:49:58.294Z,-4.03
2019-01-16T08:52:46.898Z,-4.07
2019-01-16T08:55:35.971Z,-4.04
2019-01-16T08:58:37.405Z,-3.99
2019-01-16T09:01:32.618Z,-3.94
2019-01-16T09:04:16.340Z,-3.87
2019-01-16T09:07:20.562Z,-3.81
2019-01-16T09:10:08.096Z,-3.91
2019-01-16T09:12:55.903Z,-3.59
2019-01-16T09:15:47.822Z,-3.50
2019-01-16T09:18:38.008Z,-3.51
2019-01-16T09:21:30.057Z,-3.52
2019-01-16T09:24:15.528Z,-3.48
2019-01-16T09:27:06.879Z,-3.28
2019-01-16T09:30:08.338Z,-3.22
2019-01-16T09:33:03.359Z,-3.25
2019-01-16T09:35:52.451Z,-3.19
2019-01-16T09:38:40.596Z,-3.15
2019-01-16T09:41:38.873Z,-2.99
2019-01-16T09:44:26.730Z,-2.91
2019-01-16T09:47:15.787Z,-2.86
2019-01-16T09:50:08.564Z,-2.95
2019-01-16T09:52:56.612Z,-2.79
2019-01-16T09:55:51.796Z,-2.85
2019-01-16T09:58:39.741Z,-2.78
2019-01-16T10:01:27.516Z,-2.82
2019-01-16T10:04:22.709Z,-2.72
2019-01-16T10:07:01.930Z,-2.67
2019-01-16T10:09:53.952Z,-2.92
2019-01-16T10:12:42.023Z,-2.92
2019-01-16T10:15:35.750Z,-2.79
2019-01-16T10:18:23.677Z,-2.75
2019-01-16T10:21:13.757Z,-2.62
2019-01-16T10:24:01.560Z,-2.48
2019-01-16T10:26:49.555Z,-3.03
2019-01-16T10:29:44.902Z,-2.56
2019-01-16T10:32:27.863Z,-2.64
2019-01-16T10:35:26.345Z,-2.66
2019-01-16T10:38:15.617Z,-2.52
2019-01-16T10:41:13.909Z,-2.53
2019-01-16T10:44:15.193Z,-2.44
2019-01-16T10:47:03.349Z,-2.49
2019-01-16T10:50:04.798Z,-2.37
2019-01-16T10:52:53.584Z,-2.34
2019-01-16T10:55:41.761Z,-2.38
2019-01-16T10:58:29.887Z,-2.35
2019-01-16T11:01:25.057Z,-2.17
2019-01-16T11:04:26.837Z,-2.16
2019-01-16T11:07:18.748Z,-2.13
2019-01-16T11:10:07.860Z,-2.09
2019-01-16T11:13:07.156Z,-2.07
2019-01-16T11:15:54.892Z,-2.02
2019-01-16T11:18:42.945Z,-1.96
2019-01-16T11:21:25.257Z,-1.95
2019-01-16T11:24:13.322Z,-1.98
2019-01-16T11:27:02.396Z,-1.99
2019-01-16T11:30:00.584Z,-2.01
2019-01-16T11:32:48.662Z,-1.88
2019-01-16T11:35:50.262Z,-1.82
2019-01-16T11:38:38.439Z,-1.90
2019-01-16T11:41:14.697Z,-1.81
2019-01-16T11:44:06.863Z,-1.92
2019-01-16T11:47:01.917Z,-1.88
2019-01-16T11:49:54.106Z,-1.72
2019-01-16T11:52:55.352Z,-1.78
2019-01-16T11:55:53.516Z,-1.74
2019-01-16T11:58:45.565Z,-1.69
2019-01-16T12:01:33.558Z,-1.66
2019-01-16T12:04:25.673Z,-1.62
2019-01-16T12:07:03.856Z,-1.70
2019-01-16T12:09:55.928Z,-1.56
2019-01-16T12:12:44.508Z,-1.57
2019-01-16T12:15:33.795Z,-1.45
2019-01-16T12:18:16.006Z,-1.97
2019-01-16T12:20:57.865Z,-1.41
2019-01-16T12:24:05.146Z,-1.41
2019-01-16T12:26:52.032Z,-1.31
2019-01-16T12:29:46.105Z,-1.28
2019-01-16T12:32:35.182Z,-1.25
2019-01-16T12:35:23.693Z,-1.20
2019-01-16T12:38:12.770Z,-1.26
2019-01-16T12:41:09.712Z,-1.20
2019-01-16T12:43:58.788Z,-1.18
2019-01-16T12:46:46.495Z,-1.18
2019-01-16T12:49:41.488Z,-1.12
2019-01-16T12:52:29.176Z,-1.14
2019-01-16T12:55:27.479Z,-1.13
2019-01-16T12:58:22.500Z,-1.07
2019-01-16T13:01:15.954Z,-0.90
2019-01-16T13:03:53.863Z,-0.81
2019-01-16T13:06:41.893Z,-0.75
2019-01-16T13:09:37.045Z,-0.74
2019-01-16T13:12:41.598Z,-0.74
2019-01-16T13:15:39.733Z,-0.54
2019-01-16T13:18:27.781Z,-0.48
2019-01-16T13:21:08.623Z,-0.40
2019-01-16T13:24:00.804Z,-0.39
2019-01-16T13:26:48.881Z,-0.26
2019-01-16T13:29:27.273Z,-0.08
2019-01-16T13:32:15.878Z,-0.09
2019-01-16T13:34:59.943Z,-0.06
2019-01-16T13:37:48.208Z,0.01
2019-01-16T13:40:36.101Z,0.14
2019-01-16T13:43:18.106Z,0.12
2019-01-16T13:46:10.069Z,0.18
2019-01-16T13:48:59.153Z,0.05
2019-01-16T13:51:57.068Z,0.21
2019-01-16T13:54:44.828Z,0.33
2019-01-16T13:57:49.040Z,0.39
2019-01-16T14:00:48.593Z,0.37
2019-01-16T14:03:40.892Z,0.27
2019-01-16T14:06:33.071Z,0.41
2019-01-16T14:09:23.380Z,0.43
2019-01-16T14:12:16.129Z,0.43
2019-01-16T14:15:03.960Z,0.43
2019-01-16T14:17:45.248Z,0.44
2019-01-16T14:20:34.074Z,0.44
2019-01-16T14:23:24.052Z,0.50
2019-01-16T14:26:11.230Z,0.68
2019-01-16T14:29:11.653Z,0.69
2019-01-16T14:31:51.406Z,0.71
2019-01-16T14:34:51.736Z,0.63
2019-01-16T14:37:40.153Z,0.64
2019-01-16T14:40:32.581Z,0.70
2019-01-16T14:43:17.967Z,0.77
2019-01-16T14:45:59.765Z,0.85
2019-01-16T14:49:00.696Z,0.72
2019-01-16T14:51:50.712Z,0.79
2019-01-16T14:54:39.035Z,0.74
2019-01-16T14:57:34.038Z,0.81
2019-01-16T15:00:33.140Z,0.82
2019-01-16T15:03:20.906Z,0.73
2019-01-16T15:06:22.316Z,0.78
2019-01-16T15:09:11.392Z,0.84
2019-01-16T15:11:57.684Z,0.95
2019-01-16T15:14:41.547Z,0.83
2019-01-16T15:17:25.271Z,1.00
2019-01-16T15:20:25.434Z,1.02
2019-01-16T15:23:14.506Z,1.11
2019-01-16T15:26:00.782Z,1.04
2019-01-16T15:28:56.132Z,1.12
2019-01-16T15:31:43.897Z,1.12
2019-01-16T15:34:31.750Z,1.18
2019-01-16T15:37:38.919Z,1.25
2019-01-16T15:40:30.572Z,1.27
2019-01-16T15:43:26.563Z,1.22
2019-01-16T15:46:03.879Z,1.22
2019-01-16T15:48:52.976Z,1.32
2019-01-16T15:51:33.996Z,1.28
2019-01-16T15:54:23.886Z,1.29
2019-01-16T15:57:17.201Z,1.38
2019-01-16T16:00:05.504Z,1.40
2019-01-16T16:02:59.763Z,1.48
2019-01-16T16:05:48.836Z,1.44
2019-01-16T16:08:37.910Z,1.51
2019-01-16T16:11:25.686Z,1.55
2019-01-16T16:14:17.777Z,1.63
2019-01-16T16:17:12.923Z,1.68
2019-01-16T16:20:00.839Z,1.73
2019-01-16T16:22:55.300Z,1.73
2019-01-16T16:25:43.031Z,1.75
2019-01-16T16:28:41.083Z,1.81
2019-01-16T16:31:33.190Z,1.71
2019-01-16T16:34:34.678Z,1.84
2019-01-16T16:37:32.831Z,1.78
2019-01-16T16:40:22.492Z,1.75
2019-01-16T16:43:01.108Z,1.88
2019-01-16T16:45:48.843Z,1.84
2019-01-16T16:48:49.788Z,1.91
2019-01-16T16:51:40.261Z,1.89
2019-01-16T16:54:28.078Z,1.94
2019-01-16T16:57:10.093Z,1.93
2019-01-16T16:59:58.059Z,2.01
2019-01-16T17:02:53.127Z,2.07
2019-01-16T17:05:46.871Z,2.07
2019-01-16T17:08:44.987Z,2.12
2019-01-16T17:11:40.154Z,2.13
2019-01-16T17:14:28.237Z,2.24
2019-01-16T17:17:14.624Z,2.25
2019-01-16T17:20:02.586Z,2.29
2019-01-16T17:22:50.563Z,2.39
2019-01-16T17:25:36.063Z,2.40
2019-01-16T17:28:29.727Z,2.42
2019-01-16T17:31:17.738Z,2.54
2019-01-16T17:34:05.670Z,2.59
2019-01-16T17:37:13.054Z,2.58
2019-01-16T17:40:00.720Z,2.51
2019-01-16T17:42:56.735Z,2.55
2019-01-16T17:45:44.399Z,2.64
2019-01-16T17:48:35.612Z,2.71
2019-01-16T17:51:23.628Z,2.70
2019-01-16T17:54:05.840Z,2.78
2019-01-16T17:56:53.580Z,2.75
2019-01-16T17:59:43.062Z,2.84
2019-01-16T18:02:35.201Z,2.88
2019-01-16T18:05:24.127Z,2.86
2019-01-16T18:08:19.297Z,2.90
2019-01-16T18:11:14.243Z,2.96
2019-01-16T18:13:55.836Z,2.93
2019-01-16T18:16:57.317Z,2.98
2019-01-16T18:19:46.442Z,3.02
2019-01-16T18:22:33.679Z,3.03
2019-01-16T18:25:12.298Z,2.94
2019-01-16T18:28:10.885Z,2.90
2019-01-16T18:31:15.408Z,2.92
2019-01-16T18:34:04.511Z,2.96
2019-01-16T18:37:00.291Z,3.00
2019-01-16T18:39:48.118Z,2.98
2019-01-16T18:42:36.179Z,3.04
2019-01-16T18:45:27.180Z,3.06
2019-01-16T18:48:08.936Z,3.05
2019-01-16T18:50:58.876Z,3.01
2019-01-16T18:53:46.989Z,3.10
2019-01-16T18:56:34.783Z,3.11
2019-01-16T18:59:15.937Z,3.06
2019-01-16T19:02:17.158Z,3.02
2019-01-16T19:05:04.933Z,3.09
2019-01-16T19:07:50.774Z,3.22
2019-01-16T19:10:31.752Z,3.30
2019-01-16T19:13:16.022Z,3.31
2019-01-16T19:16:05.106Z,3.34
2019-01-16T19:19:03.274Z,3.38
2019-01-16T19:21:45.441Z,3.46
2019-01-16T19:24:22.939Z,3.48
2019-01-16T19:27:09.358Z,3.51
2019-01-16T19:29:47.156Z,3.61
2019-01-16T19:32:35.881Z,3.66
2019-01-16T19:35:46.106Z,3.68
2019-01-16T19:38:33.900Z,3.75
2019-01-16T19:41:22.103Z,3.84
2019-01-16T19:44:20.213Z,3.88
2019-01-16T19:47:24.811Z,3.88
2019-01-16T19:50:12.755Z,3.91
2019-01-16T19:53:05.003Z,3.94
2019-01-16T19:56:03.376Z,3.89
2019-01-16T19:58:51.363Z,3.98
2019-01-16T20:01:40.459Z,3.98
2019-01-16T20:04:42.711Z,4.01
2019-01-16T20:07:43.671Z,4.01
2019-01-16T20:10:24.846Z,4.07
2019-01-16T20:13:07.792Z,4.13
2019-01-16T20:15:56.911Z,4.18
2019-01-16T20:18:44.941Z,4.21
2019-01-16T20:21:33.613Z,4.28
2019-01-16T20:24:34.952Z,4.29
2019-01-16T20:27:22.814Z,4.28
2019-01-16T20:30:04.748Z,4.31
2019-01-16T20:32:52.869Z,4.30
2019-01-16T20:35:36.936Z,4.33
2019-01-16T20:38:21.621Z,4.39
2019-01-16T20:41:09.378Z,4.42
2019-01-16T20:44:07.723Z,4.47
2019-01-16T20:46:49.964Z,4.45
2019-01-16T20:49:38.070Z,4.47
2019-01-16T20:52:45.321Z,4.44
2019-01-16T20:55:46.000Z,4.41
2019-01-16T20:58:37.520Z,4.44
2019-01-16T21:01:29.441Z,4.39
2019-01-16T21:04:17.146Z,4.36
2019-01-16T21:07:15.597Z,4.40
2019-01-16T21:10:04.755Z,4.34
2019-01-16T21:12:52.564Z,4.35
2019-01-16T21:15:40.492Z,4.35
2019-01-16T21:18:28.193Z,4.32
2019-01-16T21:21:35.725Z,4.24
2019-01-16T21:24:28.023Z,4.28
2019-01-16T21:27:14.375Z,4.30
2019-01-16T21:30:05.897Z,4.36
2019-01-16T21:32:56.760Z,4.34
2019-01-16T21:35:45.622Z,4.36
2019-01-16T21:38:39.602Z,4.39
2019-01-16T21:41:20.576Z,4.36
2019-01-16T21:44:21.565Z,4.39
2019-01-16T21:47:10.823Z,4.39
2019-01-16T21:50:02.944Z,4.39
2019-01-16T21:52:39.900Z,4.39
2019-01-16T21:55:25.916Z,4.41
2019-01-16T21:58:13.700Z,4.39
2019-01-16T22:01:01.791Z,4.40
2019-01-16T22:03:49.609Z,4.40
2019-01-16T22:06:53.849Z,4.35
2019-01-16T22:09:48.840Z,4.39
2019-01-16T22:12:43.986Z,4.36
2019-01-16T22:15:36.754Z,4.39
2019-01-16T22:18:38.276Z,4.40
2019-01-16T22:21:27.380Z,4.41
2019-01-16T22:24:34.667Z,4.42
2019-01-16T22:27:42.025Z,4.44
2019-01-16T22:30:42.299Z,4.41
2019-01-16T22:33:31.380Z,4.46
2019-01-16T22:36:32.929Z,4.49
2019-01-16T22:39:34.063Z,4.49
2019-01-16T22:42:20.470Z,4.49
2019-01-16T22:45:03.344Z,4.48
2019-01-16T22:47:58.767Z,4.46
2019-01-16T22:51:03.313Z,4.51
2019-01-16T22:53:46.147Z,4.48
2019-01-16T22:56:38.063Z,4.47
2019-01-16T22:59:36.230Z,4.43
2019-01-16T23:02:25.651Z,4.43
2019-01-16T23:05:09.052Z,4.39
2019-01-16T23:08:07.315Z,4.36
2019-01-16T23:11:09.604Z,4.31
2019-01-16T23:13:53.249Z,4.29
2019-01-16T23:16:54.384Z,4.26
2019-01-16T23:19:49.503Z,4.31
2019-01-16T23:22:38.563Z,4.24
2019-01-16T23:25:23.511Z,4.22
2019-01-16T23:28:12.576Z,4.19
2019-01-16T23:30:55.342Z,4.21
2019-01-16T23:33:43.347Z,4.23
2019-01-16T23:36:29.440Z,4.20
2019-01-16T23:39:14.502Z,4.25
2019-01-16T23:42:19.156Z,4.27
2019-01-16T23:45:07.210Z,4.28
2019-01-16T23:47:49.580Z,4.29
2019-01-16T23:50:51.013Z,4.30
2019-01-16T23:53:40.122Z,4.26
2019-01-16T23:56:29.189Z,4.25
2019-01-16T23:59:21.434Z,4.25
